Observations for Trim Market St
| Time | AQI | Temp °C | Hum % | Pres Pa | CO μg/m³ | H₂S μg/m³ | NO μg/m³ | NO₂ μg/m³ | O₃ μg/m³ | SO₂ μg/m³ | PM1 μg/m³ | PM2.5 μg/m³ | PM10 μg/m³ |
|---|---|---|---|---|---|---|---|---|---|---|---|---|---|
| Monday 13 July 2026 | |||||||||||||
| 20:54 | 1 | 22.5 | 46 | 63,446 | 0 | 0 | 0 | 6.42 | 33.55 | 0 | 1.43 | 4.17 | 4.46 |
| 20:53 | 1 | 22.6 | 46 | 63,515 | 0 | 0 | 0 | 6.31 | 30.19 | 0 | 0.71 | 3.14 | 3.69 |
| 20:52 | 1 | 22.6 | 46 | 63,564 | 0 | 0 | 0 | 4.01 | 31.33 | 0 | 1.43 | 3.66 | 3.69 |
| 20:50 | 1 | 22.7 | 46 | 63,611 | 0 | 0 | 0 | 6.29 | 30.02 | 0 | 2.14 | 4.7 | 5.22 |
| 20:49 | 1 | 22.7 | 46 | 63,629 | 0 | 0 | 0 | 7.02 | 29.33 | 0 | 2.14 | 4.19 | 5.22 |
| 20:48 | 1 | 22.7 | 46 | 63,685 | 0 | 0 | 0 | 10.52 | 23.38 | 0 | 0.71 | 3.67 | 3.68 |
| 20:47 | 1 | 22.8 | 46 | 63,721 | 0 | 0 | 0 | 7.29 | 30.03 | 0 | 0.71 | 3.67 | 3.68 |
| 20:44 | 1 | 22.9 | 46 | 63,886 | 0 | 0 | 5.23 | 16.9 | 13.87 | 0 | 1.43 | 4.2 | 4.44 |
| 20:41 | 1 | 22.9 | 45 | 63,954 | 0 | 0 | 0 | 6.22 | 31.16 | 0 | 1.43 | 3.69 | 4.43 |
| 20:38 | 1 | 23 | 45 | 64,041 | 0 | 0 | 0 | 7.22 | 29.03 | 0 | 0.71 | 3.18 | 3.5 |
| 20:33 | 1 | 23.1 | 45 | 64,163 | 0 | 0 | 0 | 7.02 | 27.86 | 0 | 1.43 | 4.24 | 4.42 |
| 20:29 | 1 | 23.2 | 45 | 64,327 | 0 | 0 | 0 | 5.43 | 30.49 | 0 | 0.71 | 3.21 | 3.64 |
| 20:26 | 1 | 23.3 | 44 | 64,446 | 0 | 0 | 0 | 3.94 | 33.63 | 0 | 1.43 | 3.74 | 5.97 |
| 20:25 | 1 | 23.3 | 44 | 64,479 | 0 | 0 | 0 | 3.85 | 31.42 | 0 | 1.43 | 4.79 | 6.75 |
| 20:24 | 1 | 23.3 | 44 | 64,527 | 0 | 0 | 0 | 3.55 | 31.39 | 0 | 0 | 2.7 | 2.97 |
| 20:23 | 1 | 23.4 | 44 | 64,556 | 0 | 0 | 0 | 4.13 | 32.03 | 0 | 0 | 2.71 | 2.98 |
| 20:22 | 1 | 23.4 | 44 | 64,594 | 0 | 0 | 0 | 3.53 | 30.9 | 0 | 1.43 | 4.27 | 4.4 |
| 20:21 | 1 | 23.4 | 44 | 64,641 | 0 | 0 | 0 | 4.54 | 31.72 | 0 | 0.71 | 3.76 | 4.13 |
| 20:20 | 1 | 23.5 | 44 | 64,647 | 0 | 0 | 0 | 5.03 | 28.31 | 0 | 0.71 | 4.28 | 4.4 |
| 20:19 | 1 | 23.5 | 44 | 64,649 | 0 | 0 | 0 | 3.73 | 30.37 | 0 | 0.71 | 4.28 | 4.4 |